Skip Navigation Links
NOAA logo - Click to go to the NOAA homepage
NOAA's National Weather Service
Alaska Aviation Weather Unit
  NWS logo - Click to go to the NWS homepage
Left Navbar Graphic     12 AKDT = 20 GMT

   
NOAA is celebrating 200 years of science, service, and stewardship. Visit the NOAA 200th celebration Web site to learn more.
USA.gov is the U.S. Government's official Web portal to all Federal, state and local government Web resources and services.
Facebook
NWS on Facebook

Important Change Regarding the AAWU Web Presence

 

Over the last several months, the AAWU has been working to navigate its webpages to a nationally supported server. Security, as well as other needs, have necessitated the change.  We have been given an extension for the site changeover while we diligently work at addressing feedback received. As of July 14, 2017, aawu.arh.noaa.gov will be discontinued. The new AAWU web address is weather.gov/aawu. It is now live and will run in-parallel with the old site until it is discontinued on July 14, 2017. Please continue to send any feedback or questions regarding the new webpages to nws.ar.aawu.webauthors@noaa.gov.  Thank you for your patience during this time of transition.
AAWU Home :: Display TAF Add Bookmark
TAF PAIL 251933Z 2520/2618 VRB04KT P6SM SCT008 OVC016
     FM252200 18005KT P6SM -RA OVC015
     FM260200 16004KT 4SM -RA BR SCT008 OVC012=
METAR PAIL 251453Z 00000KT 10SM FEW022 OVC065 12/11 A3003 RMK AO2
     RAB1355E40 SLP169 P0001 60001 T01170111 56009=

METAR PAIL 251553Z 00000KT 10SM SCT022 BKN035 OVC065 12/11 A3002 RMK AO2
     SLP166 T01220111=

PAIL 251606Z 00000KT 10SM BKN022 BKN031 OVC038 12/11 A3002 RMK AO2
     T01220111=

METAR PAIL 251653Z 00000KT 10SM OVC022 12/11 A3001 RMK AO2 SLP164
     T01220111=

METAR PAIL 251753Z 00000KT 10SM OVC019 13/12 A3001 RMK AO2 SLP162 60001
     T01280117 10128 20111 56006=

METAR PAIL 251853Z 00000KT 10SM OVC017 14/12 A3001 RMK AO2 SLP161
     T01390122=

SPECI PAIL 251925Z 13004KT 10SM BKN008 OVC016 13/13 A3000 RMK AO2
     T01330128=

SPECI PAIL 251931Z 13004KT 10SM SCT008 OVC016 13/13 A3000 RMK AO2
 T01330128=

METAR PAIL 251953Z 14003KT 10SM FEW009 OVC019 13/12 A3000 RMK AO2 SLP159
     T01330122=


NOAA's National Weather Service
Alaska Aviation Weather Unit
6930 Sand Lake Road
Anchorage, AK 99502-1845
Disclaimer
Credits
Glossary
Privacy Policy
About Us
Career Opportunities
Contact AAWU Internet Services Site last modified: April, 17th 2012